Terminal Aerodrome Forecast
Issued by NWS Shreveport, LA

Home | Current Version | Previous Version | Text Only | Print | Product List | Glossary On
Versions: 1 2 3 4 5 6 7 8 9 10 11 12 13 14 15 16
412
FTUS44 KSHV 071721
TAFSHV
TAF
KSHV 071721Z 0718/0818 12006KT P6SM BKN020 OVC100
     FM080100 VRB05KT P6SM VCSH OVC012
      TEMPO 0803/0807 6SM -SHRA BR OVC008
     FM080800 02010KT P6SM VCSH SCT009 OVC015
     FM081200 02012G18KT P6SM BKN025 OVC150=

USA.gov is the U.S. government's official web portal to all federal, state and local government web resources and services.